createdAt,value
2023-09-08T00:00:14.760Z,0
2023-09-08T00:01:16.258Z,0
2023-09-08T00:02:17.942Z,0
2023-09-08T00:03:19.487Z,0
2023-09-08T00:04:21.078Z,0
2023-09-08T00:05:22.576Z,0
2023-09-08T00:06:23.942Z,0
2023-09-08T00:07:25.402Z,0
2023-09-08T00:08:26.820Z,0
2023-09-08T00:09:28.269Z,0
2023-09-08T00:10:29.656Z,0
2023-09-08T00:11:31.050Z,0
2023-09-08T00:12:32.454Z,0
2023-09-08T00:13:33.872Z,0
2023-09-08T00:14:35.266Z,0
2023-09-08T00:15:36.661Z,0
2023-09-08T00:16:38.091Z,0
2023-09-08T00:17:39.598Z,0
2023-09-08T00:18:41.031Z,0
2023-09-08T00:19:42.453Z,0
2023-09-08T00:20:43.908Z,0
2023-09-08T00:21:45.379Z,0
2023-09-08T00:22:46.833Z,0
2023-09-08T00:23:48.233Z,0
2023-09-08T00:24:49.622Z,0
2023-09-08T00:25:51.065Z,0
2023-09-08T00:26:52.442Z,0
2023-09-08T00:27:53.892Z,0
2023-09-08T00:28:55.311Z,0
2023-09-08T00:29:56.689Z,0
2023-09-08T00:30:58.082Z,0
2023-09-08T00:31:59.606Z,0
2023-09-08T00:33:01.179Z,0
2023-09-08T00:34:02.787Z,0
2023-09-08T00:35:04.340Z,0
2023-09-08T00:36:05.871Z,0
2023-09-08T00:37:07.359Z,0
2023-09-08T00:38:08.793Z,0
2023-09-08T00:39:10.310Z,0
2023-09-08T00:40:11.746Z,0
2023-09-08T00:41:13.563Z,0
2023-09-08T00:42:14.964Z,0
2023-09-08T00:43:16.352Z,0
2023-09-08T00:44:17.741Z,0
2023-09-08T00:45:19.166Z,0
2023-09-08T00:46:20.589Z,0
2023-09-08T00:47:22.114Z,0
2023-09-08T00:48:23.609Z,0
2023-09-08T00:49:25.015Z,0
2023-09-08T00:50:26.449Z,0
2023-09-08T00:51:27.904Z,0
2023-09-08T00:52:29.317Z,0
2023-09-08T00:53:30.714Z,0
2023-09-08T00:54:32.104Z,0
2023-09-08T00:55:33.496Z,0
2023-09-08T00:56:34.908Z,0
2023-09-08T00:57:36.328Z,0
2023-09-08T00:58:38.212Z,0
2023-09-08T00:59:39.175Z,0
2023-09-08T01:00:40.574Z,0
2023-09-08T01:01:41.948Z,0
2023-09-08T01:02:43.483Z,0
2023-09-08T01:03:44.981Z,0
2023-09-08T01:04:46.432Z,0
2023-09-08T01:05:47.941Z,0
2023-09-08T01:06:49.412Z,0
2023-09-08T01:07:50.809Z,0
2023-09-08T01:08:52.258Z,0
2023-09-08T01:09:53.733Z,0
2023-09-08T01:10:55.193Z,0
2023-09-08T01:11:56.691Z,0
2023-09-08T01:12:58.124Z,0
2023-09-08T01:13:59.510Z,0
2023-09-08T01:15:00.936Z,0
2023-09-08T01:16:02.388Z,0
2023-09-08T01:17:03.805Z,0
2023-09-08T01:18:05.344Z,0
2023-09-08T01:19:06.887Z,0
2023-09-08T01:20:08.285Z,0
2023-09-08T01:21:09.728Z,0
2023-09-08T01:22:11.155Z,0
2023-09-08T01:23:12.575Z,0
2023-09-08T01:24:13.984Z,0
2023-09-08T01:25:15.374Z,0
2023-09-08T01:26:16.762Z,0
2023-09-08T01:27:18.144Z,0
2023-09-08T01:28:19.584Z,0
2023-09-08T01:29:20.955Z,0
2023-09-08T01:30:22.352Z,0
2023-09-08T01:31:23.856Z,0
2023-09-08T01:32:25.463Z,0
2023-09-08T01:33:26.859Z,0
2023-09-08T01:34:28.248Z,0
2023-09-08T01:35:29.681Z,0
2023-09-08T01:36:31.078Z,0
2023-09-08T01:37:32.473Z,0
2023-09-08T01:38:34.284Z,0
2023-09-08T01:39:35.876Z,0
2023-09-08T01:40:37.268Z,0
2023-09-08T01:41:38.711Z,0
2023-09-08T01:42:40.106Z,0
2023-09-08T01:43:41.804Z,0
2023-09-08T01:44:43.235Z,0
2023-09-08T01:45:44.924Z,0
2023-09-08T01:46:46.395Z,0
2023-09-08T01:47:47.863Z,0
2023-09-08T01:48:49.277Z,0
2023-09-08T01:49:50.714Z,0
2023-09-08T01:50:52.115Z,0
2023-09-08T01:51:53.658Z,0
2023-09-08T01:52:55.034Z,0
2023-09-08T01:53:56.446Z,0
2023-09-08T01:54:57.890Z,0
2023-09-08T01:55:59.305Z,0
2023-09-08T01:57:00.707Z,0
2023-09-08T01:58:02.151Z,0
2023-09-08T01:59:03.590Z,0
2023-09-08T02:00:04.979Z,0
2023-09-08T02:01:06.406Z,0
2023-09-08T02:02:07.829Z,0
2023-09-08T02:03:09.241Z,0
2023-09-08T02:04:10.670Z,0
2023-09-08T02:05:12.258Z,0
2023-09-08T02:06:13.690Z,0
2023-09-08T02:07:15.074Z,0
2023-09-08T02:08:16.470Z,0
2023-09-08T02:09:17.903Z,0
2023-09-08T02:10:19.322Z,0
2023-09-08T02:11:20.697Z,0
2023-09-08T02:12:22.095Z,0
2023-09-08T02:13:23.496Z,0
2023-09-08T02:14:24.878Z,0
2023-09-08T02:15:26.338Z,0
2023-09-08T02:16:27.795Z,0
2023-09-08T02:17:29.261Z,0
2023-09-08T02:18:30.728Z,0
2023-09-08T02:19:32.130Z,0
2023-09-08T02:20:33.530Z,0
2023-09-08T02:21:34.959Z,0
2023-09-08T02:22:36.362Z,0
2023-09-08T02:23:37.748Z,0
2023-09-08T02:24:39.141Z,0
2023-09-08T02:25:40.543Z,0
2023-09-08T02:26:41.930Z,0
2023-09-08T02:27:43.316Z,0
2023-09-08T02:28:44.767Z,0
2023-09-08T02:29:46.155Z,0
2023-09-08T02:30:47.550Z,0
2023-09-08T02:31:48.948Z,0
2023-09-08T02:32:50.475Z,0
2023-09-08T02:33:52.101Z,0
2023-09-08T02:34:53.532Z,0
2023-09-08T02:35:54.904Z,0
2023-09-08T02:36:56.289Z,0
2023-09-08T02:37:57.683Z,0
2023-09-08T02:38:59.074Z,0
2023-09-08T02:40:00.470Z,0
2023-09-08T02:41:01.923Z,0
2023-09-08T02:42:03.317Z,0
2023-09-08T02:43:04.733Z,0
2023-09-08T02:44:06.195Z,0
2023-09-08T02:45:07.591Z,0
2023-09-08T02:46:09.019Z,0
2023-09-08T02:47:10.425Z,0
2023-09-08T02:48:11.864Z,0
2023-09-08T02:49:13.370Z,0
2023-09-08T02:50:14.988Z,0
2023-09-08T02:51:16.510Z,0
2023-09-08T02:52:17.913Z,0
2023-09-08T02:53:19.299Z,0
2023-09-08T02:54:20.731Z,0
2023-09-08T02:55:22.157Z,0
2023-09-08T02:56:23.552Z,0
2023-09-08T02:57:24.939Z,0
2023-09-08T02:58:26.358Z,0
2023-09-08T02:59:27.795Z,0
2023-09-08T03:00:29.190Z,0
2023-09-08T03:01:30.655Z,0
2023-09-08T03:02:32.255Z,0
2023-09-08T03:03:33.934Z,0
2023-09-08T03:04:35.458Z,0
2023-09-08T03:05:36.878Z,0
2023-09-08T03:06:38.276Z,0
2023-09-08T03:07:39.704Z,0
2023-09-08T03:08:41.101Z,0
2023-09-08T03:09:42.523Z,0
2023-09-08T03:10:43.961Z,0
2023-09-08T03:11:45.363Z,0
2023-09-08T03:12:46.881Z,0
2023-09-08T03:13:48.367Z,0
2023-09-08T03:14:49.778Z,0
2023-09-08T03:15:51.266Z,0
2023-09-08T03:16:52.699Z,0
2023-09-08T03:17:55.082Z,0
2023-09-08T03:18:56.535Z,0
2023-09-08T03:19:57.963Z,0
2023-09-08T03:20:59.368Z,0
2023-09-08T03:22:00.773Z,0
2023-09-08T03:23:02.170Z,0
2023-09-08T03:24:03.619Z,0
2023-09-08T03:25:05.052Z,0
2023-09-08T03:26:06.442Z,0
2023-09-08T03:27:07.909Z,0
2023-09-08T03:28:09.304Z,0
2023-09-08T03:29:10.683Z,0
2023-09-08T03:30:12.069Z,0
2023-09-08T03:31:13.610Z,0
2023-09-08T03:32:15.231Z,0
2023-09-08T03:33:16.754Z,0
2023-09-08T03:34:18.335Z,0
2023-09-08T03:35:19.847Z,0
2023-09-08T03:36:21.305Z,0
2023-09-08T03:37:22.671Z,0
2023-09-08T03:38:24.119Z,0
2023-09-08T03:39:25.503Z,0
2023-09-08T03:40:26.927Z,0
2023-09-08T03:41:28.322Z,0
2023-09-08T03:42:29.713Z,0
2023-09-08T03:43:31.108Z,0
2023-09-08T03:44:32.495Z,0
2023-09-08T03:45:33.916Z,0
2023-09-08T03:46:35.465Z,0
2023-09-08T03:47:36.941Z,0
2023-09-08T03:48:38.392Z,0
2023-09-08T03:49:39.814Z,0
2023-09-08T03:50:41.225Z,0
2023-09-08T03:51:42.613Z,0
2023-09-08T03:52:43.997Z,0
2023-09-08T03:53:45.473Z,0
2023-09-08T03:54:46.867Z,0
2023-09-08T03:55:48.256Z,0
2023-09-08T03:56:49.642Z,0
2023-09-08T03:57:51.049Z,0
2023-09-08T03:58:52.555Z,0
2023-09-08T03:59:53.944Z,0
2023-09-08T04:00:55.350Z,0
2023-09-08T04:01:56.744Z,0
2023-09-08T04:02:58.284Z,0
2023-09-08T04:03:59.764Z,0
2023-09-08T04:05:01.204Z,0
2023-09-08T04:06:02.591Z,0
2023-09-08T04:07:04.019Z,0
2023-09-08T04:08:05.407Z,0
2023-09-08T04:09:06.933Z,0
2023-09-08T04:10:08.315Z,0
2023-09-08T04:11:09.720Z,0
2023-09-08T04:12:11.138Z,0
2023-09-08T04:13:12.522Z,0
2023-09-08T04:14:13.974Z,0
2023-09-08T04:15:15.462Z,0
2023-09-08T04:16:16.897Z,0
2023-09-08T04:17:18.337Z,0
2023-09-08T04:18:19.833Z,0
2023-09-08T04:19:21.282Z,0
2023-09-08T04:20:22.669Z,0
2023-09-08T04:21:24.114Z,0
2023-09-08T04:22:25.542Z,0
2023-09-08T04:23:26.941Z,0
2023-09-08T04:24:28.531Z,0
2023-09-08T04:25:29.917Z,0
2023-09-08T04:26:31.304Z,0
2023-09-08T04:27:32.699Z,0
2023-09-08T04:28:34.087Z,0
2023-09-08T04:29:35.475Z,0
2023-09-08T04:30:36.885Z,0
2023-09-08T04:31:38.384Z,0
2023-09-08T04:32:39.826Z,0
2023-09-08T04:33:41.313Z,0
2023-09-08T04:34:42.771Z,0
2023-09-08T04:35:44.213Z,0
2023-09-08T04:36:45.611Z,0
2023-09-08T04:37:47.043Z,0
2023-09-08T04:38:48.438Z,0
2023-09-08T04:39:49.879Z,0
2023-09-08T04:40:51.260Z,0
2023-09-08T04:41:52.656Z,0
2023-09-08T04:42:54.102Z,0
2023-09-08T04:43:55.511Z,0
2023-09-08T04:44:56.886Z,0
2023-09-08T04:45:58.327Z,0
2023-09-08T04:46:59.836Z,0
2023-09-08T04:48:01.250Z,0
2023-09-08T04:49:02.633Z,0
2023-09-08T04:50:04.049Z,0
2023-09-08T04:51:05.440Z,0
2023-09-08T04:52:06.835Z,0
2023-09-08T04:53:08.283Z,0
2023-09-08T04:54:09.675Z,0
2023-09-08T04:55:11.069Z,0
2023-09-08T04:56:12.508Z,0
2023-09-08T04:57:22.838Z,0
2023-09-08T04:58:16.293Z,0
2023-09-08T04:59:17.782Z,0
2023-09-08T05:00:19.325Z,0
2023-09-08T05:01:20.734Z,0
2023-09-08T05:02:22.217Z,0
2023-09-08T05:03:23.808Z,0
2023-09-08T05:04:25.303Z,0
2023-09-08T05:05:26.731Z,0
2023-09-08T05:06:28.130Z,0
2023-09-08T05:07:29.652Z,0
2023-09-08T05:08:31.076Z,0
2023-09-08T05:09:32.500Z,0
2023-09-08T05:10:33.924Z,0
2023-09-08T05:11:35.344Z,0
2023-09-08T05:12:36.789Z,0
2023-09-08T05:13:38.187Z,0
2023-09-08T05:14:39.637Z,0
2023-09-08T05:15:41.100Z,0
2023-09-08T05:16:42.518Z,0
2023-09-08T05:17:44.067Z,0
2023-09-08T05:18:45.514Z,0
2023-09-08T05:19:46.930Z,0
2023-09-08T05:20:48.319Z,0
2023-09-08T05:21:49.746Z,0
2023-09-08T05:22:51.173Z,0
2023-09-08T05:23:52.565Z,0
2023-09-08T05:24:54.005Z,0
2023-09-08T05:25:55.409Z,0
2023-09-08T05:26:56.792Z,0
2023-09-08T05:27:58.281Z,0
2023-09-08T05:28:59.672Z,0
2023-09-08T05:30:01.118Z,0
2023-09-08T05:31:02.650Z,0
2023-09-08T05:32:04.061Z,0
2023-09-08T05:33:05.579Z,0
2023-09-08T05:34:07.035Z,0
2023-09-08T05:35:08.526Z,0
2023-09-08T05:36:09.959Z,0
2023-09-08T05:37:11.682Z,0
2023-09-08T05:38:13.122Z,0
2023-09-08T05:39:14.535Z,0
2023-09-08T05:40:16.000Z,0
2023-09-08T05:41:17.381Z,0
2023-09-08T05:42:18.768Z,0
2023-09-08T05:43:20.232Z,0
2023-09-08T05:44:21.649Z,0
2023-09-08T05:45:23.035Z,0
2023-09-08T05:46:24.518Z,0
2023-09-08T05:47:25.971Z,0
2023-09-08T05:48:27.386Z,0
2023-09-08T05:49:28.913Z,0
2023-09-08T05:50:30.401Z,0
2023-09-08T05:51:31.794Z,0
2023-09-08T05:52:33.272Z,0
2023-09-08T05:53:34.725Z,0
2023-09-08T05:54:36.103Z,0
2023-09-08T05:55:37.493Z,0
2023-09-08T05:56:38.928Z,0
2023-09-08T05:57:40.378Z,0
2023-09-08T05:58:41.766Z,0
2023-09-08T05:59:43.250Z,0
2023-09-08T06:00:44.588Z,0
2023-09-08T06:01:45.993Z,0
2023-09-08T06:02:47.482Z,0
2023-09-08T06:03:49.175Z,0
2023-09-08T06:04:50.698Z,0
2023-09-08T06:05:52.198Z,0
2023-09-08T06:06:53.683Z,0
2023-09-08T06:08:06.384Z,0
2023-09-08T06:08:57.487Z,0
2023-09-08T06:09:58.962Z,0
2023-09-08T06:11:00.421Z,0
2023-09-08T06:12:01.845Z,0
2023-09-08T06:13:03.214Z,0
2023-09-08T06:14:04.606Z,0
2023-09-08T06:15:06.012Z,0
2023-09-08T06:16:07.430Z,0
2023-09-08T06:17:08.823Z,0
2023-09-08T06:18:10.281Z,0
2023-09-08T06:19:11.714Z,0
2023-09-08T06:20:13.119Z,0
2023-09-08T06:21:14.577Z,0
2023-09-08T06:22:16.026Z,0
2023-09-08T06:23:17.474Z,0
2023-09-08T06:24:18.867Z,0
2023-09-08T06:25:20.267Z,0
2023-09-08T06:26:21.710Z,0
2023-09-08T06:27:23.099Z,0
2023-09-08T06:28:24.540Z,0
2023-09-08T06:29:25.934Z,0
2023-09-08T06:30:27.320Z,0
2023-09-08T06:31:28.746Z,0
2023-09-08T06:32:30.174Z,0
2023-09-08T06:33:31.691Z,0
2023-09-08T06:34:33.317Z,0
2023-09-08T06:35:34.738Z,0
2023-09-08T06:36:36.254Z,0
2023-09-08T06:37:37.671Z,0
2023-09-08T06:38:39.174Z,0
2023-09-08T06:39:40.695Z,0
2023-09-08T06:40:42.078Z,0
2023-09-08T06:41:43.503Z,0
2023-09-08T06:42:44.930Z,0
2023-09-08T06:43:46.436Z,0
2023-09-08T06:44:47.922Z,0
2023-09-08T06:45:49.365Z,0
2023-09-08T06:46:50.761Z,0
2023-09-08T06:47:52.280Z,0
2023-09-08T06:48:53.678Z,0
2023-09-08T06:49:55.106Z,0
2023-09-08T06:50:56.511Z,0
2023-09-08T06:51:57.893Z,0
2023-09-08T06:52:59.286Z,0
2023-09-08T06:54:00.762Z,0
2023-09-08T06:55:02.202Z,0
2023-09-08T06:56:03.596Z,0
2023-09-08T06:57:05.085Z,0
2023-09-08T06:58:06.515Z,0
2023-09-08T06:59:07.921Z,0
2023-09-08T07:00:09.300Z,0
2023-09-08T07:01:11.766Z,0
2023-09-08T07:02:13.454Z,0
2023-09-08T07:03:14.856Z,0
2023-09-08T07:04:16.404Z,0
2023-09-08T07:05:18.046Z,0
2023-09-08T07:06:19.556Z,0
2023-09-08T07:07:21.016Z,0
2023-09-08T07:08:22.427Z,0
2023-09-08T07:09:23.814Z,0
2023-09-08T07:10:25.210Z,0
2023-09-08T07:11:26.671Z,0
2023-09-08T07:12:28.059Z,0
2023-09-08T07:13:29.476Z,0
2023-09-08T07:14:30.852Z,0
2023-09-08T07:15:32.256Z,0
2023-09-08T07:16:33.750Z,0
2023-09-08T07:17:35.146Z,0
2023-09-08T07:18:36.890Z,0
2023-09-08T07:19:38.705Z,0
2023-09-08T07:20:40.143Z,0
2023-09-08T07:21:41.542Z,0
2023-09-08T07:22:43.067Z,0
2023-09-08T07:23:44.468Z,0
2023-09-08T07:24:45.922Z,0
2023-09-08T07:25:47.306Z,8
2023-09-08T07:26:48.745Z,4
2023-09-08T07:27:50.143Z,8
2023-09-08T07:28:51.589Z,8
2023-09-08T07:29:52.994Z,8
2023-09-08T07:30:54.603Z,8
2023-09-08T07:31:55.880Z,12
2023-09-08T07:32:57.367Z,8
2023-09-08T07:33:58.771Z,8
2023-09-08T07:35:00.300Z,8
2023-09-08T07:36:01.598Z,12
2023-09-08T07:37:03.012Z,8
2023-09-08T07:38:04.522Z,12
2023-09-08T07:39:05.908Z,8
2023-09-08T07:40:07.358Z,12
2023-09-08T07:41:08.794Z,8
2023-09-08T07:42:10.193Z,12
2023-09-08T07:43:11.736Z,12
2023-09-08T07:44:13.158Z,8
2023-09-08T07:45:14.606Z,8
2023-09-08T07:46:16.184Z,8
2023-09-08T07:47:17.641Z,8
2023-09-08T07:48:19.183Z,12
2023-09-08T07:49:20.662Z,16
2023-09-08T07:50:22.064Z,12
2023-09-08T07:51:23.435Z,16
2023-09-08T07:52:24.837Z,12
2023-09-08T07:53:26.350Z,12
2023-09-08T07:54:27.743Z,12
2023-09-08T07:55:29.181Z,16
2023-09-08T07:56:30.717Z,16
2023-09-08T07:57:32.024Z,16
2023-09-08T07:58:33.648Z,16
2023-09-08T07:59:37.753Z,16
2023-09-08T08:00:37.250Z,16
2023-09-08T08:01:38.725Z,16
2023-09-08T08:02:40.138Z,12
2023-09-08T08:03:41.537Z,12
2023-09-08T08:04:42.929Z,16
2023-09-08T08:05:44.473Z,16
2023-09-08T08:06:45.842Z,16
2023-09-08T08:07:47.248Z,16
2023-09-08T08:08:48.705Z,16
2023-09-08T08:09:50.124Z,12
2023-09-08T08:10:51.510Z,12
2023-09-08T08:11:52.992Z,12
2023-09-08T08:12:54.377Z,16
2023-09-08T08:13:55.759Z,16
2023-09-08T08:14:57.217Z,16
2023-09-08T08:15:58.648Z,16
2023-09-08T08:17:00.053Z,16
2023-09-08T08:18:01.561Z,16
2023-09-08T08:19:03.201Z,16
2023-09-08T08:20:04.633Z,16
2023-09-08T08:21:06.051Z,16
2023-09-08T08:22:07.421Z,16
2023-09-08T08:23:09.101Z,16
2023-09-08T08:24:10.583Z,16
2023-09-08T08:25:12.856Z,16
2023-09-08T08:26:13.413Z,16
2023-09-08T08:27:14.994Z,16
2023-09-08T08:28:16.402Z,16
2023-09-08T08:29:17.804Z,16
2023-09-08T08:30:19.297Z,16
2023-09-08T08:31:20.675Z,16
2023-09-08T08:32:22.074Z,16
2023-09-08T08:33:23.511Z,20
2023-09-08T08:34:24.894Z,20
2023-09-08T08:35:26.372Z,16
2023-09-08T08:36:27.832Z,16
2023-09-08T08:37:29.218Z,16
2023-09-08T08:38:30.632Z,16
2023-09-08T08:39:32.522Z,20
2023-09-08T08:40:33.914Z,20
2023-09-08T08:41:35.360Z,20
2023-09-08T08:42:36.753Z,20
2023-09-08T08:43:38.224Z,20
2023-09-08T08:44:39.692Z,20
2023-09-08T08:46:56.590Z,16
2023-09-08T08:47:58.104Z,20
2023-09-08T08:48:59.529Z,20
2023-09-08T08:50:00.923Z,20
2023-09-08T08:51:02.359Z,20
2023-09-08T08:52:03.755Z,20
2023-09-08T08:53:05.148Z,20
2023-09-08T08:54:06.574Z,20
2023-09-08T08:55:08.027Z,20
2023-09-08T08:56:09.492Z,24
2023-09-08T08:57:10.973Z,20
2023-09-08T08:58:12.336Z,20
2023-09-08T08:59:13.739Z,24
2023-09-08T09:00:15.205Z,20
2023-09-08T09:01:16.610Z,20
2023-09-08T09:02:18.029Z,16
2023-09-08T09:03:19.510Z,20
2023-09-08T09:04:20.987Z,20
2023-09-08T09:05:22.417Z,20
2023-09-08T09:06:23.856Z,12
2023-09-08T09:07:25.390Z,12
2023-09-08T09:08:26.766Z,12
2023-09-08T09:09:28.265Z,12
2023-09-08T09:10:29.652Z,12
2023-09-08T09:11:31.191Z,16
2023-09-08T09:12:32.681Z,20
2023-09-08T09:13:34.076Z,20
2023-09-08T09:14:35.546Z,16
2023-09-08T09:15:37.019Z,16
2023-09-08T09:16:38.427Z,16
2023-09-08T09:17:39.855Z,16
2023-09-08T09:18:41.372Z,16
2023-09-08T09:19:42.806Z,16
2023-09-08T09:20:44.193Z,12
2023-09-08T09:21:45.628Z,16
2023-09-08T09:22:47.020Z,16
2023-09-08T09:23:48.397Z,16
2023-09-08T09:24:49.880Z,24
2023-09-08T09:25:51.380Z,20
2023-09-08T09:26:52.820Z,20
2023-09-08T09:27:54.234Z,20
2023-09-08T09:28:55.660Z,16
2023-09-08T09:29:57.148Z,24
2023-09-08T09:30:58.547Z,28
2023-09-08T09:31:59.971Z,28
2023-09-08T09:33:01.420Z,28
2023-09-08T09:34:02.847Z,32
2023-09-08T09:35:04.247Z,32
2023-09-08T09:36:05.630Z,28
2023-09-08T09:37:07.076Z,16
2023-09-08T09:38:08.477Z,16
2023-09-08T09:39:09.936Z,8
2023-09-08T09:40:11.404Z,8
2023-09-08T09:41:12.792Z,12
2023-09-08T09:42:16.357Z,12
2023-09-08T09:43:16.787Z,12
2023-09-08T09:44:18.081Z,16
2023-09-08T09:45:19.469Z,20
2023-09-08T09:46:20.956Z,16
2023-09-08T09:47:22.358Z,20
2023-09-08T09:48:23.793Z,20
2023-09-08T09:49:25.277Z,32
2023-09-08T09:50:26.647Z,28
2023-09-08T09:51:28.046Z,24
2023-09-08T09:52:29.664Z,32
2023-09-08T09:53:31.090Z,28
2023-09-08T09:54:32.494Z,24
2023-09-08T09:55:33.882Z,20
2023-09-08T09:56:35.284Z,16
2023-09-08T09:57:36.664Z,20
2023-09-08T09:58:38.212Z,16
2023-09-08T09:59:39.821Z,16
2023-09-08T10:00:41.251Z,16
2023-09-08T10:01:42.629Z,16
2023-09-08T10:02:44.075Z,16
2023-09-08T10:03:45.709Z,16
2023-09-08T10:04:47.117Z,20
2023-09-08T10:05:48.524Z,16
2023-09-08T10:06:49.894Z,16
2023-09-08T10:07:51.293Z,16
2023-09-08T10:08:52.680Z,16
2023-09-08T10:09:54.074Z,16
2023-09-08T10:10:55.462Z,16
2023-09-08T10:11:56.903Z,16
2023-09-08T10:12:58.305Z,20
2023-09-08T10:13:59.703Z,20
2023-09-08T10:15:01.190Z,16
2023-09-08T10:16:02.614Z,32
2023-09-08T10:17:04.030Z,32
2023-09-08T10:18:06.671Z,32
2023-09-08T10:19:07.920Z,28
2023-09-08T10:20:09.323Z,32
2023-09-08T10:21:10.718Z,28
2023-09-08T10:22:12.141Z,36
2023-09-08T10:23:13.548Z,40
2023-09-08T10:24:15.006Z,44
2023-09-08T10:25:16.443Z,40
2023-09-08T10:26:17.832Z,40
2023-09-08T10:27:19.313Z,32
2023-09-08T10:28:20.730Z,28
2023-09-08T10:29:22.120Z,16
2023-09-08T10:30:23.634Z,16
2023-09-08T10:31:25.109Z,16
2023-09-08T10:32:26.619Z,20
2023-09-08T10:33:28.104Z,16
2023-09-08T10:34:29.619Z,16
2023-09-08T10:35:31.104Z,20
2023-09-08T10:36:34.903Z,24
2023-09-08T10:37:34.880Z,16
2023-09-08T10:38:36.707Z,24
2023-09-08T10:39:37.851Z,32
2023-09-08T10:40:39.240Z,24
2023-09-08T10:41:40.627Z,20
2023-09-08T10:42:42.057Z,16
2023-09-08T10:43:43.451Z,16
2023-09-08T10:44:44.899Z,16
2023-09-08T10:45:46.326Z,16
2023-09-08T10:46:47.854Z,12
2023-09-08T10:47:49.248Z,16
2023-09-08T10:48:50.684Z,12
2023-09-08T10:49:52.090Z,12
2023-09-08T10:50:53.536Z,16
2023-09-08T10:51:54.954Z,16
2023-09-08T10:52:56.453Z,12
2023-09-08T10:53:57.907Z,16
2023-09-08T10:54:59.352Z,16
2023-09-08T10:56:17.196Z,16
2023-09-08T10:57:03.171Z,24
2023-09-08T10:58:04.565Z,32
2023-09-08T10:59:06.029Z,40
2023-09-08T11:00:07.413Z,32
2023-09-08T11:01:08.855Z,32
2023-09-08T11:02:10.255Z,40
2023-09-08T11:03:11.813Z,40
2023-09-08T11:04:13.469Z,40
2023-09-08T11:05:14.949Z,36
2023-09-08T11:06:16.359Z,40
2023-09-08T11:07:17.796Z,44
2023-09-08T11:08:19.274Z,40
2023-09-08T11:09:20.705Z,40
2023-09-08T11:10:22.102Z,44
2023-09-08T11:11:23.553Z,40
2023-09-08T11:12:24.924Z,40
2023-09-08T11:13:26.318Z,40
2023-09-08T11:14:27.733Z,44
2023-09-08T11:15:29.108Z,40
2023-09-08T11:16:30.661Z,44
2023-09-08T11:17:31.968Z,40
2023-09-08T11:18:33.577Z,40
2023-09-08T11:19:35.143Z,40
2023-09-08T11:20:36.557Z,40
2023-09-08T11:21:40.147Z,40
2023-09-08T11:22:40.385Z,40
2023-09-08T11:23:41.792Z,40
2023-09-08T11:24:43.198Z,40
2023-09-08T11:25:44.584Z,40
2023-09-08T11:26:46.169Z,44
2023-09-08T11:27:47.572Z,44
2023-09-08T11:28:49.028Z,40
2023-09-08T11:29:50.468Z,44
2023-09-08T11:30:52.061Z,44
2023-09-08T11:31:53.866Z,44
2023-09-08T11:32:55.312Z,44
2023-09-08T11:33:56.941Z,44
2023-09-08T11:34:58.349Z,44
2023-09-08T11:35:59.793Z,40
2023-09-08T11:37:01.245Z,32
2023-09-08T11:38:02.636Z,36
2023-09-08T11:39:04.049Z,36
2023-09-08T11:40:05.462Z,40
2023-09-08T11:41:06.862Z,36
2023-09-08T11:42:08.250Z,32
2023-09-08T11:43:09.668Z,12
2023-09-08T11:44:11.086Z,16
2023-09-08T11:45:12.500Z,36
2023-09-08T11:46:14.051Z,32
2023-09-08T11:47:15.489Z,36
2023-09-08T11:48:16.901Z,40
2023-09-08T11:49:18.437Z,20
2023-09-08T11:50:19.828Z,12
2023-09-08T11:51:21.282Z,16
2023-09-08T11:52:22.691Z,24
2023-09-08T11:53:24.113Z,12
2023-09-08T11:54:25.514Z,16
2023-09-08T11:55:27.059Z,12
2023-09-08T11:56:28.445Z,12
2023-09-08T11:57:29.837Z,12
2023-09-08T11:58:31.270Z,12
2023-09-08T11:59:32.652Z,12
2023-09-08T12:00:34.066Z,12
2023-09-08T12:01:35.537Z,16
2023-09-08T12:02:37.000Z,16
2023-09-08T12:03:38.432Z,16
2023-09-08T12:04:40.757Z,20
2023-09-08T12:05:42.207Z,20
2023-09-08T12:06:43.628Z,16
2023-09-08T12:07:45.092Z,16
2023-09-08T12:08:46.493Z,16
2023-09-08T12:09:47.974Z,12
2023-09-08T12:10:49.404Z,12
2023-09-08T12:11:50.853Z,12
2023-09-08T12:12:52.266Z,12
2023-09-08T12:13:53.663Z,12
2023-09-08T12:14:55.083Z,12
2023-09-08T12:15:56.558Z,12
2023-09-08T12:16:57.986Z,12
2023-09-08T12:17:59.404Z,12
2023-09-08T12:19:00.884Z,16
2023-09-08T12:20:02.335Z,16
2023-09-08T12:21:03.723Z,12
2023-09-08T12:22:05.229Z,16
2023-09-08T12:23:06.681Z,12
2023-09-08T12:24:08.110Z,12
2023-09-08T12:25:09.500Z,12
2023-09-08T12:26:10.889Z,12
2023-09-08T12:27:12.313Z,12
2023-09-08T12:28:13.730Z,16
2023-09-08T12:29:15.138Z,16
2023-09-08T12:30:16.535Z,24
2023-09-08T12:31:18.084Z,36
2023-09-08T12:32:19.581Z,40
2023-09-08T12:33:21.351Z,36
2023-09-08T12:34:22.471Z,40
2023-09-08T12:35:23.887Z,36
2023-09-08T12:36:25.315Z,32
2023-09-08T12:37:26.703Z,32
2023-09-08T12:38:28.196Z,32
2023-09-08T12:39:29.593Z,32
2023-09-08T12:40:30.989Z,36
2023-09-08T12:41:32.388Z,16
2023-09-08T12:42:34.829Z,12
2023-09-08T12:43:36.189Z,12
2023-09-08T12:44:37.588Z,24
2023-09-08T12:45:39.025Z,44
2023-09-08T12:46:40.452Z,32
2023-09-08T12:47:41.884Z,48
2023-09-08T12:48:43.403Z,48
2023-09-08T12:49:44.830Z,48
2023-09-08T12:50:46.226Z,48
2023-09-08T12:51:47.656Z,48
2023-09-08T12:52:49.053Z,40
2023-09-08T12:53:50.517Z,44
2023-09-08T12:54:52.087Z,40
2023-09-08T12:55:53.471Z,32
2023-09-08T12:56:54.924Z,24
2023-09-08T12:57:56.327Z,28
2023-09-08T12:58:57.708Z,32
2023-09-08T13:00:00.209Z,40
2023-09-08T13:01:01.719Z,44
2023-09-08T13:02:03.102Z,44
2023-09-08T13:03:04.581Z,20
2023-09-08T13:04:06.008Z,48
2023-09-08T13:05:07.483Z,24
2023-09-08T13:06:08.932Z,44
2023-09-08T13:07:10.352Z,32
2023-09-08T13:08:16.922Z,48
2023-09-08T13:09:18.408Z,52
2023-09-08T13:10:19.807Z,40
2023-09-08T13:11:21.252Z,40
2023-09-08T13:12:22.628Z,40
2023-09-08T13:13:24.035Z,48
2023-09-08T13:14:25.410Z,40
2023-09-08T13:15:26.812Z,44
2023-09-08T13:16:28.288Z,40
2023-09-08T13:17:29.683Z,44
2023-09-08T13:18:31.074Z,28
2023-09-08T13:19:32.467Z,20
2023-09-08T13:20:33.909Z,48
2023-09-08T13:21:35.306Z,44
2023-09-08T13:22:36.725Z,48
2023-09-08T13:23:38.094Z,48
2023-09-08T13:24:39.493Z,44
2023-09-08T13:25:40.887Z,44
2023-09-08T13:26:42.308Z,48
2023-09-08T13:27:43.719Z,44
2023-09-08T13:28:45.149Z,44
2023-09-08T13:29:46.611Z,44
2023-09-08T13:30:48.016Z,48
2023-09-08T13:31:49.543Z,28
2023-09-08T13:32:50.872Z,28
2023-09-08T13:33:52.289Z,24
2023-09-08T13:34:53.756Z,20
2023-09-08T13:35:55.119Z,28
2023-09-08T13:36:56.509Z,32
2023-09-08T13:37:57.987Z,36
2023-09-08T13:38:59.397Z,36
2023-09-08T13:40:00.897Z,36
2023-09-08T13:41:02.332Z,28
2023-09-08T13:42:03.762Z,32
2023-09-08T13:43:05.192Z,36
2023-09-08T13:44:06.629Z,44
2023-09-08T13:45:08.020Z,36
2023-09-08T13:46:09.414Z,32
2023-09-08T13:47:10.954Z,48
2023-09-08T13:48:12.843Z,52
2023-09-08T13:49:15.391Z,52
2023-09-08T13:50:17.394Z,48
2023-09-08T13:51:18.554Z,40
2023-09-08T13:52:22.597Z,48
2023-09-08T13:53:21.725Z,48
2023-09-08T13:55:36.956Z,48
2023-09-08T13:56:28.092Z,48
2023-09-08T13:57:29.882Z,48
2023-09-08T13:58:47.846Z,48
2023-09-08T13:59:36.168Z,48
2023-09-08T14:01:41.208Z,48
2023-09-08T14:02:43.558Z,48
2023-09-08T14:04:02.482Z,44
2023-09-08T14:05:52.935Z,44
2023-09-08T14:06:51.573Z,44
2023-09-08T14:07:56.707Z,44
2023-09-08T14:10:05.480Z,44
2023-09-08T14:13:02.866Z,44
2023-09-08T14:14:04.423Z,44
2023-09-08T14:15:05.894Z,44
2023-09-08T14:16:07.288Z,48
2023-09-08T14:17:08.684Z,52
2023-09-08T14:18:10.132Z,44
2023-09-08T14:19:11.579Z,16
2023-09-08T14:20:13.096Z,16
2023-09-08T14:21:14.568Z,16
2023-09-08T14:22:16.018Z,20
2023-09-08T14:23:17.451Z,28
2023-09-08T14:24:18.870Z,52
2023-09-08T14:25:20.260Z,52
2023-09-08T14:26:21.690Z,48
2023-09-08T14:27:23.080Z,48
2023-09-08T14:28:24.532Z,48
2023-09-08T14:29:25.976Z,48
2023-09-08T14:30:27.360Z,48
2023-09-08T14:31:28.824Z,48
2023-09-08T14:32:30.232Z,44
2023-09-08T14:33:31.722Z,48
2023-09-08T14:34:33.066Z,48
2023-09-08T14:35:34.580Z,44
2023-09-08T14:36:35.974Z,48
2023-09-08T14:37:37.371Z,44
2023-09-08T14:38:38.872Z,32
2023-09-08T14:39:40.367Z,36
2023-09-08T14:40:41.765Z,36
2023-09-08T14:41:43.149Z,36
2023-09-08T14:42:44.540Z,24
2023-09-08T14:43:45.929Z,28
2023-09-08T14:44:47.326Z,32
2023-09-08T14:45:48.787Z,32
2023-09-08T14:46:50.205Z,36
2023-09-08T14:47:51.635Z,32
2023-09-08T14:48:53.075Z,36
2023-09-08T14:49:54.483Z,36
2023-09-08T14:50:55.898Z,36
2023-09-08T14:51:57.296Z,40
2023-09-08T14:52:58.720Z,40
2023-09-08T14:54:00.189Z,40
2023-09-08T14:55:01.609Z,44
2023-09-08T14:56:03.072Z,36
2023-09-08T14:57:04.458Z,40
2023-09-08T14:58:05.860Z,40
2023-09-08T14:59:07.253Z,44
2023-09-08T15:00:08.669Z,40